createdAt,value
2022-09-12T00:01:31.427Z,14.52
2022-09-12T00:04:02.012Z,14.49
2022-09-12T00:06:33.178Z,14.47
2022-09-12T00:09:11.892Z,14.45
2022-09-12T00:11:43.118Z,14.42
2022-09-12T00:14:14.993Z,14.40
2022-09-12T00:16:44.201Z,14.38
2022-09-12T00:19:12.965Z,14.37
2022-09-12T00:21:42.028Z,14.34
2022-09-12T00:24:13.326Z,14.31
2022-09-12T00:26:41.807Z,14.30
2022-09-12T00:29:19.125Z,14.27
2022-09-12T00:31:48.016Z,14.23
2022-09-12T00:34:16.548Z,14.20
2022-09-12T00:36:45.008Z,14.18
2022-09-12T00:39:17.516Z,14.14
2022-09-12T00:41:46.231Z,14.11
2022-09-12T00:44:23.812Z,14.09
2022-09-12T00:46:58.922Z,14.08
2022-09-12T00:49:27.257Z,14.04
2022-09-12T00:52:01.699Z,14.01
2022-09-12T00:54:45.401Z,13.97
2022-09-12T00:57:16.948Z,13.94
2022-09-12T00:59:51.237Z,13.93
2022-09-12T01:02:20.194Z,13.91
2022-09-12T01:04:53.123Z,13.88
2022-09-12T01:07:26.546Z,13.86
2022-09-12T01:09:55.354Z,13.84
2022-09-12T01:12:24.416Z,13.83
2022-09-12T01:14:53.006Z,13.83
2022-09-12T01:17:22.142Z,13.82
2022-09-12T01:20:29.278Z,13.81
2022-09-12T01:23:00.546Z,13.80
2022-09-12T01:26:03.300Z,13.80
2022-09-12T01:29:03.153Z,13.79
2022-09-12T01:31:57.867Z,13.77
2022-09-12T01:34:58.502Z,13.76
2022-09-12T01:37:38.434Z,13.75
2022-09-12T01:40:21.147Z,13.73
2022-09-12T01:43:18.326Z,13.70
2022-09-12T01:45:56.502Z,13.64
2022-09-12T01:48:45.745Z,13.61
2022-09-12T01:51:26.444Z,13.58
2022-09-12T01:54:07.032Z,13.58
2022-09-12T01:56:41.325Z,13.56
2022-09-12T01:59:23.091Z,13.53
2022-09-12T02:02:09.901Z,13.52
2022-09-12T02:05:09.117Z,13.52
2022-09-12T02:07:43.999Z,13.50
2022-09-12T02:10:28.128Z,13.50
2022-09-12T02:13:12.819Z,13.49
2022-09-12T02:15:45.833Z,13.49
2022-09-12T02:18:18.482Z,13.50
2022-09-12T02:20:49.400Z,13.49
2022-09-12T02:23:25.329Z,13.48
2022-09-12T02:26:00.479Z,13.44
2022-09-12T02:28:36.961Z,13.44
2022-09-12T02:31:23.166Z,13.43
2022-09-12T02:34:03.573Z,13.43
2022-09-12T02:36:37.731Z,13.43
2022-09-12T02:39:06.558Z,13.42
2022-09-12T02:41:35.624Z,13.40
2022-09-12T02:44:05.799Z,13.38
2022-09-12T02:46:44.127Z,13.37
2022-09-12T02:49:13.340Z,13.36
2022-09-12T02:51:42.128Z,13.34
2022-09-12T02:54:11.799Z,13.33
2022-09-12T02:56:43.100Z,13.33
2022-09-12T02:59:16.195Z,13.32
2022-09-12T03:02:00.369Z,13.32
2022-09-12T03:04:53.704Z,13.31
2022-09-12T03:07:29.276Z,13.28
2022-09-12T03:10:35.138Z,13.29
2022-09-12T03:13:18.750Z,13.26
2022-09-12T03:16:18.060Z,13.23
2022-09-12T03:19:19.543Z,13.21
2022-09-12T03:22:12.903Z,13.18
2022-09-12T03:25:05.823Z,13.16
2022-09-12T03:27:42.938Z,13.16
2022-09-12T03:30:12.639Z,13.15
2022-09-12T03:32:46.960Z,13.14
2022-09-12T03:35:22.821Z,13.10
2022-09-12T03:37:53.102Z,13.07
2022-09-12T03:40:21.596Z,13.05
2022-09-12T03:42:49.908Z,13.02
2022-09-12T03:45:18.555Z,13.01
2022-09-12T03:47:47.774Z,13.00
2022-09-12T03:50:16.411Z,12.98
2022-09-12T03:52:44.809Z,12.97
2022-09-12T03:55:13.259Z,12.96
2022-09-12T03:57:41.755Z,12.96
2022-09-12T04:00:11.377Z,12.95
2022-09-12T04:02:43.974Z,12.93
2022-09-12T04:05:18.542Z,12.90
2022-09-12T04:07:50.191Z,12.89
2022-09-12T04:10:20.514Z,12.88
2022-09-12T04:12:49.023Z,12.86
2022-09-12T04:15:17.459Z,12.86
2022-09-12T04:17:45.768Z,12.85
2022-09-12T04:20:14.095Z,12.84
2022-09-12T04:22:42.510Z,12.84
2022-09-12T04:25:11.796Z,12.83
2022-09-12T04:27:41.748Z,12.84
2022-09-12T04:30:10.985Z,12.84
2022-09-12T04:32:40.945Z,12.85
2022-09-12T04:35:11.287Z,12.84
2022-09-12T04:37:41.374Z,12.82
2022-09-12T04:40:09.942Z,12.80
2022-09-12T04:42:38.320Z,12.79
2022-09-12T04:45:08.219Z,12.79
2022-09-12T04:47:36.774Z,12.79
2022-09-12T04:50:05.520Z,12.79
2022-09-12T04:52:34.249Z,12.81
2022-09-12T04:55:02.634Z,12.81
2022-09-12T04:57:31.057Z,12.82
2022-09-12T05:00:03.876Z,12.83
2022-09-12T05:02:36.708Z,12.85
2022-09-12T05:05:06.463Z,12.88
2022-09-12T05:07:35.638Z,12.89
2022-09-12T05:10:04.756Z,12.94
2022-09-12T05:12:33.174Z,12.97
2022-09-12T05:15:02.512Z,13.04
2022-09-12T05:17:30.916Z,13.09
2022-09-12T05:20:00.512Z,13.13
2022-09-12T05:22:28.881Z,13.18
2022-09-12T05:24:57.221Z,13.23
2022-09-12T05:27:25.594Z,13.28
2022-09-12T05:29:54.157Z,13.34
2022-09-12T05:32:22.592Z,13.41
2022-09-12T05:34:50.940Z,13.47
2022-09-12T05:37:19.522Z,13.52
2022-09-12T05:39:48.472Z,13.56
2022-09-12T05:42:19.604Z,13.60
2022-09-12T05:44:48.042Z,13.65
2022-09-12T05:47:19.702Z,13.70
2022-09-12T05:49:48.187Z,13.73
2022-09-12T05:52:17.177Z,13.74
2022-09-12T05:54:47.588Z,13.78
2022-09-12T05:57:16.001Z,13.80
2022-09-12T05:59:44.941Z,13.82
2022-09-12T06:02:13.331Z,13.85
2022-09-12T06:04:41.711Z,13.87
2022-09-12T06:07:10.020Z,13.90
2022-09-12T06:09:38.505Z,13.94
2022-09-12T06:12:08.737Z,13.98
2022-09-12T06:14:37.158Z,14.04
2022-09-12T06:17:05.763Z,14.07
2022-09-12T06:19:34.806Z,14.11
2022-09-12T06:22:03.640Z,14.16
2022-09-12T06:24:32.107Z,14.20
2022-09-12T06:27:02.319Z,14.23
2022-09-12T06:29:32.735Z,14.30
2022-09-12T06:32:01.853Z,14.35
2022-09-12T06:34:31.031Z,14.38
2022-09-12T06:36:59.359Z,14.41
2022-09-12T06:39:28.652Z,14.47
2022-09-12T06:41:56.987Z,14.52
2022-09-12T06:44:35.934Z,14.56
2022-09-12T06:47:04.421Z,14.59
2022-09-12T06:49:34.179Z,14.64
2022-09-12T06:52:02.808Z,14.68
2022-09-12T06:54:31.193Z,14.71
2022-09-12T06:56:59.447Z,14.74
2022-09-12T06:59:28.102Z,14.80
2022-09-12T07:01:56.609Z,14.84
2022-09-12T07:04:26.512Z,14.87
2022-09-12T07:06:54.744Z,14.91
2022-09-12T07:09:24.178Z,14.94
2022-09-12T07:11:52.503Z,14.98
2022-09-12T07:14:21.616Z,15.03
2022-09-12T07:16:52.235Z,15.07
2022-09-12T07:19:21.496Z,15.12
2022-09-12T07:21:50.032Z,15.15
2022-09-12T07:24:19.694Z,15.18
2022-09-12T07:26:48.653Z,15.24
2022-09-12T07:32:09.108Z,15.35
2022-09-12T07:34:40.330Z,15.39
2022-09-12T07:37:08.824Z,15.43
2022-09-12T07:39:40.211Z,15.50
2022-09-12T07:42:08.513Z,15.58
2022-09-12T07:44:37.138Z,15.65
2022-09-12T07:47:05.718Z,15.75
2022-09-12T07:49:34.473Z,15.83
2022-09-12T07:52:03.070Z,15.93
2022-09-12T07:54:33.737Z,16.01
2022-09-12T07:57:02.070Z,16.10
2022-09-12T07:59:51.275Z,16.18
2022-09-12T08:02:20.418Z,16.26
2022-09-12T08:04:49.409Z,16.34
2022-09-12T08:07:19.703Z,16.42
2022-09-12T08:09:48.432Z,16.48
2022-09-12T08:12:17.932Z,16.52
2022-09-12T08:14:46.635Z,16.53
2022-09-12T08:17:14.955Z,16.55
2022-09-12T08:19:43.693Z,16.56
2022-09-12T08:22:12.074Z,16.59
2022-09-12T08:24:43.273Z,16.63
2022-09-12T08:27:11.645Z,16.67
2022-09-12T08:29:39.911Z,16.74
2022-09-12T08:32:08.561Z,16.83
2022-09-12T08:34:36.988Z,16.94
2022-09-12T08:37:05.569Z,17.06
2022-09-12T08:39:33.978Z,17.17
2022-09-12T08:42:08.245Z,17.25
2022-09-12T08:44:54.506Z,17.33
2022-09-12T08:47:33.584Z,17.40
2022-09-12T08:50:08.283Z,17.44
2022-09-12T08:53:03.536Z,17.52
2022-09-12T08:55:38.462Z,17.59
2022-09-12T08:58:22.800Z,17.64
2022-09-12T09:01:03.908Z,17.70
2022-09-12T09:03:48.386Z,17.73
2022-09-12T09:06:24.630Z,17.80
2022-09-12T09:09:02.320Z,17.87
2022-09-12T09:11:48.099Z,17.96
2022-09-12T09:14:44.946Z,17.99
2022-09-12T09:17:19.494Z,18.03
2022-09-12T09:19:56.549Z,18.07
2022-09-12T09:22:43.612Z,18.12
2022-09-12T09:25:25.333Z,18.16
2022-09-12T09:28:11.830Z,18.23
2022-09-12T09:30:43.971Z,18.29
2022-09-12T09:33:22.953Z,18.34
2022-09-12T09:36:06.874Z,18.40
2022-09-12T09:39:12.803Z,18.42
2022-09-12T09:41:47.348Z,18.46
2022-09-12T09:44:16.400Z,18.50
2022-09-12T09:46:45.132Z,18.56
2022-09-12T09:49:16.819Z,18.62
2022-09-12T09:51:48.670Z,18.68
2022-09-12T09:54:29.131Z,18.77
2022-09-12T09:56:57.664Z,18.87
2022-09-12T09:59:32.139Z,18.99
2022-09-12T10:02:13.274Z,19.12
2022-09-12T10:04:54.062Z,19.25
2022-09-12T10:07:24.252Z,19.37
2022-09-12T10:10:15.537Z,19.48
2022-09-12T10:12:44.600Z,19.62
2022-09-12T10:15:23.374Z,19.77
2022-09-12T10:17:53.090Z,19.91
2022-09-12T10:20:37.397Z,20.07
2022-09-12T10:23:37.538Z,20.20
2022-09-12T10:26:11.447Z,20.32
2022-09-12T10:28:47.168Z,20.42
2022-09-12T10:31:29.210Z,20.50
2022-09-12T10:34:01.227Z,20.60
2022-09-12T10:36:40.578Z,20.71
2022-09-12T10:39:19.338Z,20.81
2022-09-12T10:41:47.934Z,20.92
2022-09-12T10:44:18.932Z,21.04
2022-09-12T10:46:47.300Z,21.11
2022-09-12T10:49:40.046Z,21.14
2022-09-12T10:52:24.205Z,21.22
2022-09-12T10:54:52.809Z,21.27
2022-09-12T10:57:30.136Z,21.32
2022-09-12T11:00:28.526Z,21.39
2022-09-12T11:03:15.412Z,21.47
2022-09-12T11:05:58.598Z,21.50
2022-09-12T11:08:43.811Z,21.53
2022-09-12T11:11:46.857Z,21.63
2022-09-12T11:14:47.669Z,21.71
2022-09-12T11:17:23.138Z,21.75
2022-09-12T11:20:13.824Z,21.85
2022-09-12T11:23:00.786Z,21.92
2022-09-12T11:25:35.213Z,21.93
2022-09-12T11:28:28.510Z,21.95
2022-09-12T11:30:56.983Z,21.98
2022-09-12T11:33:44.478Z,22.00
2022-09-12T11:36:40.106Z,21.99
2022-09-12T11:39:23.780Z,22.03
2022-09-12T11:41:58.748Z,22.06
2022-09-12T11:44:40.276Z,22.08
2022-09-12T11:47:13.517Z,22.10
2022-09-12T11:49:50.886Z,22.11
2022-09-12T11:52:33.729Z,22.15
2022-09-12T11:55:19.540Z,22.23
2022-09-12T11:58:01.664Z,22.30
2022-09-12T12:00:33.335Z,22.36
2022-09-12T12:03:13.950Z,22.41
2022-09-12T12:05:50.608Z,22.47
2022-09-12T12:08:22.338Z,22.53
2022-09-12T12:10:56.589Z,22.60
2022-09-12T12:13:52.113Z,22.64
2022-09-12T12:16:26.081Z,22.69
2022-09-12T12:19:00.433Z,22.72
2022-09-12T12:21:29.325Z,22.77
2022-09-12T12:24:13.057Z,22.85
2022-09-12T12:26:41.380Z,22.88
2022-09-12T12:29:35.159Z,22.90
2022-09-12T12:32:07.781Z,22.84
2022-09-12T12:34:37.931Z,22.77
2022-09-12T12:37:21.925Z,22.72
2022-09-12T12:39:51.379Z,22.70
2022-09-12T12:42:35.258Z,22.68
2022-09-12T12:45:26.986Z,22.73
2022-09-12T12:48:08.367Z,22.82
2022-09-12T12:50:37.209Z,22.92
2022-09-12T12:53:28.049Z,22.99
2022-09-12T12:55:57.573Z,23.04
2022-09-12T12:58:29.575Z,23.02
2022-09-12T13:01:20.343Z,22.98
2022-09-12T13:04:05.407Z,23.01
2022-09-12T13:06:43.304Z,23.08
2022-09-12T13:09:37.885Z,23.13
2022-09-12T13:12:19.342Z,23.20
2022-09-12T13:14:47.725Z,23.28
2022-09-12T13:17:25.745Z,23.37
2022-09-12T13:20:26.126Z,23.43
2022-09-12T13:22:53.158Z,23.44
2022-09-12T13:25:36.149Z,23.39
2022-09-12T13:28:23.439Z,23.33
2022-09-12T13:30:56.946Z,23.31
2022-09-12T13:33:35.285Z,23.29
2022-09-12T13:36:09.985Z,23.32
2022-09-12T13:39:01.040Z,23.43
2022-09-12T13:41:39.620Z,23.51
2022-09-12T13:44:11.403Z,23.57
2022-09-12T13:46:40.187Z,23.59
2022-09-12T13:49:22.847Z,23.54
2022-09-12T13:52:19.026Z,23.50
2022-09-12T13:54:51.899Z,23.50
2022-09-12T13:57:33.881Z,23.47
2022-09-12T14:00:08.698Z,23.45
2022-09-12T14:02:39.865Z,23.42
2022-09-12T14:05:19.855Z,23.40
2022-09-12T14:07:55.393Z,23.37
2022-09-12T14:10:33.172Z,23.39
2022-09-12T14:13:10.718Z,23.37
2022-09-12T14:15:44.268Z,23.38
2022-09-12T14:18:23.957Z,23.39
2022-09-12T14:20:56.098Z,23.41
2022-09-12T14:23:31.225Z,23.41
2022-09-12T14:26:09.419Z,23.41
2022-09-12T14:28:43.215Z,23.40
2022-09-12T14:31:15.876Z,23.40
2022-09-12T14:34:10.081Z,23.38
2022-09-12T14:36:46.632Z,23.39
2022-09-12T14:39:24.145Z,23.38
2022-09-12T14:42:03.502Z,23.38
2022-09-12T14:44:35.273Z,23.33
2022-09-12T14:47:19.742Z,23.28
2022-09-12T14:49:54.552Z,23.26
2022-09-12T14:52:28.715Z,23.20
2022-09-12T14:55:28.429Z,23.16
2022-09-12T14:58:20.523Z,23.08
2022-09-12T15:01:12.243Z,23.00
2022-09-12T15:03:49.245Z,22.93
2022-09-12T15:06:20.491Z,22.90
2022-09-12T15:08:49.119Z,22.87
2022-09-12T15:11:21.212Z,22.85
2022-09-12T15:13:49.712Z,22.85
2022-09-12T15:16:18.446Z,22.84
2022-09-12T15:18:46.958Z,22.83
2022-09-12T15:21:20.257Z,22.83
2022-09-12T15:23:50.716Z,22.86
2022-09-12T15:26:20.273Z,22.87
2022-09-12T15:28:49.666Z,22.87
2022-09-12T15:31:30.072Z,22.85
2022-09-12T15:34:00.094Z,22.82
2022-09-12T15:36:32.004Z,22.81
2022-09-12T15:39:00.531Z,22.81
2022-09-12T15:41:37.067Z,22.80
2022-09-12T15:44:08.085Z,22.78
2022-09-12T15:46:36.489Z,22.79
2022-09-12T15:49:07.537Z,22.79
2022-09-12T15:51:36.236Z,22.75
2022-09-12T15:54:05.874Z,22.70
2022-09-12T15:56:35.897Z,22.66
2022-09-12T15:59:06.365Z,22.61
2022-09-12T16:01:35.670Z,22.53
2022-09-12T16:04:24.238Z,22.48
2022-09-12T16:06:54.123Z,22.41
2022-09-12T16:09:24.022Z,22.37
2022-09-12T16:11:52.510Z,22.35
2022-09-12T16:14:20.934Z,22.33
2022-09-12T16:16:54.130Z,22.32
2022-09-12T16:19:23.045Z,22.29
2022-09-12T16:21:51.407Z,22.30
2022-09-12T16:24:23.223Z,22.30
2022-09-12T16:26:51.552Z,22.29
2022-09-12T16:29:20.104Z,22.30
2022-09-12T16:31:48.835Z,22.27
2022-09-12T16:34:19.810Z,22.25
2022-09-12T16:36:48.231Z,22.19
2022-09-12T16:39:16.747Z,22.10
2022-09-12T16:41:45.463Z,22.05
2022-09-12T16:44:13.931Z,21.96
2022-09-12T16:46:42.225Z,21.88
2022-09-12T16:49:11.985Z,21.80
2022-09-12T16:51:43.876Z,21.73
2022-09-12T16:54:12.357Z,21.67
2022-09-12T16:56:42.077Z,21.61
2022-09-12T16:59:14.114Z,21.55
2022-09-12T17:01:43.164Z,21.49
2022-09-12T17:04:11.991Z,21.46
2022-09-12T17:06:41.877Z,21.42
2022-09-12T17:09:11.552Z,21.39
2022-09-12T17:11:47.918Z,21.36
2022-09-12T17:14:16.302Z,21.35
2022-09-12T17:16:50.979Z,21.33
2022-09-12T17:19:29.128Z,21.31
2022-09-12T17:21:58.208Z,21.28
2022-09-12T17:24:26.868Z,21.26
2022-09-12T17:26:57.275Z,21.21
2022-09-12T17:29:25.563Z,21.16
2022-09-12T17:31:55.124Z,21.12
2022-09-12T17:34:23.598Z,21.07
2022-09-12T17:36:52.216Z,21.01
2022-09-12T17:39:20.580Z,20.95
2022-09-12T17:41:52.086Z,20.88
2022-09-12T17:44:20.580Z,20.80
2022-09-12T17:46:48.968Z,20.74
2022-09-12T17:49:18.666Z,20.67
2022-09-12T17:51:46.963Z,20.61
2022-09-12T17:54:19.790Z,20.53
2022-09-12T17:56:52.607Z,20.47
2022-09-12T17:59:24.027Z,20.39
2022-09-12T18:02:11.057Z,20.33
2022-09-12T18:04:41.596Z,20.28
2022-09-12T18:07:10.611Z,20.22
2022-09-12T18:09:41.083Z,20.15
2022-09-12T18:12:12.102Z,20.09
2022-09-12T18:14:41.242Z,20.02
2022-09-12T18:17:11.575Z,19.97
2022-09-12T18:19:40.493Z,19.89
2022-09-12T18:22:09.514Z,19.81
2022-09-12T18:24:37.979Z,19.77
2022-09-12T18:27:06.520Z,19.73
2022-09-12T18:29:34.979Z,19.70
2022-09-12T18:32:03.431Z,19.66
2022-09-12T18:34:32.773Z,19.62
2022-09-12T18:37:02.168Z,19.56
2022-09-12T18:39:30.612Z,19.52
2022-09-12T18:41:58.956Z,19.48
2022-09-12T18:44:28.070Z,19.47
2022-09-12T18:46:56.358Z,19.46
2022-09-12T18:49:24.772Z,19.45
2022-09-12T18:51:53.280Z,19.44
2022-09-12T18:54:21.702Z,19.43
2022-09-12T18:56:50.183Z,19.43
2022-09-12T18:59:19.739Z,19.43
2022-09-12T19:01:48.183Z,19.44
2022-09-12T19:04:16.935Z,19.43
2022-09-12T19:06:48.314Z,19.43
2022-09-12T19:09:20.737Z,19.43
2022-09-12T19:11:50.162Z,19.43
2022-09-12T19:14:26.185Z,19.43
2022-09-12T19:16:54.562Z,19.43
2022-09-12T19:19:23.448Z,19.43
2022-09-12T19:21:55.388Z,19.43
2022-09-12T19:24:23.763Z,19.43
2022-09-12T19:26:52.218Z,19.42
2022-09-12T19:29:20.670Z,19.43
2022-09-12T19:31:49.037Z,19.43
2022-09-12T19:34:17.612Z,19.42
2022-09-12T19:36:47.323Z,19.41
2022-09-12T19:39:19.584Z,19.40
2022-09-12T19:41:48.365Z,19.40
2022-09-12T19:44:19.386Z,19.39
2022-09-12T19:46:50.150Z,19.38
2022-09-12T19:49:19.656Z,19.37
2022-09-12T19:51:47.881Z,19.37
2022-09-12T19:54:16.263Z,19.37
2022-09-12T19:56:44.946Z,19.36
2022-09-12T19:59:13.842Z,19.34
2022-09-12T20:01:42.264Z,19.31
2022-09-12T20:04:10.699Z,19.27
2022-09-12T20:06:39.053Z,19.24
2022-09-12T20:09:07.697Z,19.20
2022-09-12T20:11:36.232Z,19.18
2022-09-12T20:14:04.819Z,19.15
2022-09-12T20:16:33.808Z,19.11
2022-09-12T20:19:08.686Z,19.08
2022-09-12T20:21:37.376Z,19.03
2022-09-12T20:24:12.930Z,18.99
2022-09-12T20:26:42.207Z,18.95
2022-09-12T20:29:10.857Z,18.91
2022-09-12T20:31:41.759Z,18.87
2022-09-12T20:34:15.751Z,18.82
2022-09-12T20:36:44.726Z,18.77
2022-09-12T20:39:16.091Z,18.71
2022-09-12T20:41:44.883Z,18.64
2022-09-12T20:44:14.654Z,18.59
2022-09-12T20:46:43.503Z,18.54
2022-09-12T20:49:12.050Z,18.49
2022-09-12T20:51:40.413Z,18.46
2022-09-12T20:54:09.764Z,18.42
2022-09-12T20:56:38.122Z,18.39
2022-09-12T20:59:06.873Z,18.37
2022-09-12T21:01:35.428Z,18.35
2022-09-12T21:04:04.144Z,18.33
2022-09-12T21:06:33.748Z,18.33
2022-09-12T21:09:03.350Z,18.29
2022-09-12T21:11:32.668Z,18.25
2022-09-12T21:14:01.163Z,18.24
2022-09-12T21:16:29.809Z,18.21
2022-09-12T21:18:59.641Z,18.17
2022-09-12T21:21:28.043Z,18.14
2022-09-12T21:24:02.860Z,18.13
2022-09-12T21:26:31.903Z,18.12
2022-09-12T21:29:00.374Z,18.15
2022-09-12T21:31:28.854Z,18.16
2022-09-12T21:33:57.414Z,18.17
2022-09-12T21:36:25.814Z,18.17
2022-09-12T21:38:58.378Z,18.14
2022-09-12T21:41:28.804Z,18.13
2022-09-12T21:43:57.197Z,18.11
2022-09-12T21:46:25.739Z,18.08
2022-09-12T21:48:54.134Z,18.07
2022-09-12T21:51:22.495Z,18.06
2022-09-12T21:53:50.772Z,18.06
2022-09-12T21:56:19.183Z,18.04
2022-09-12T21:58:47.561Z,18.03
2022-09-12T22:01:15.894Z,18.03
2022-09-12T22:03:44.770Z,18.02
2022-09-12T22:06:14.350Z,18.02
2022-09-12T22:08:43.050Z,18.02
2022-09-12T22:11:11.382Z,17.99
2022-09-12T22:13:43.364Z,17.98
2022-09-12T22:16:12.363Z,17.96
2022-09-12T22:18:41.540Z,17.93
2022-09-12T22:21:14.022Z,17.91
2022-09-12T22:24:02.092Z,17.88
2022-09-12T22:26:34.064Z,17.83
2022-09-12T22:29:02.719Z,17.81
2022-09-12T22:31:32.336Z,17.80
2022-09-12T22:34:01.710Z,17.79
2022-09-12T22:36:31.591Z,17.78
2022-09-12T22:39:00.873Z,17.77
2022-09-12T22:41:29.462Z,17.77
2022-09-12T22:43:58.421Z,17.76
2022-09-12T22:46:27.877Z,17.76
2022-09-12T22:48:56.269Z,17.74
2022-09-12T22:51:24.832Z,17.69
2022-09-12T22:53:53.812Z,17.68
2022-09-12T22:56:22.800Z,17.65
2022-09-12T22:58:52.660Z,17.61
2022-09-12T23:01:21.459Z,17.60
2022-09-12T23:03:50.916Z,17.58
2022-09-12T23:06:19.446Z,17.59
2022-09-12T23:08:47.906Z,17.58
2022-09-12T23:11:19.768Z,17.59
2022-09-12T23:13:49.957Z,17.57
2022-09-12T23:16:24.007Z,17.54
2022-09-12T23:18:52.564Z,17.51
2022-09-12T23:21:21.901Z,17.50
2022-09-12T23:23:50.851Z,17.48
2022-09-12T23:26:24.493Z,17.47
2022-09-12T23:28:55.176Z,17.48
2022-09-12T23:31:27.405Z,17.46
2022-09-12T23:33:57.653Z,17.44
2022-09-12T23:36:27.278Z,17.41
2022-09-12T23:38:56.327Z,17.38
2022-09-12T23:41:25.464Z,17.32
2022-09-12T23:43:54.311Z,17.29
2022-09-12T23:46:22.693Z,17.26
2022-09-12T23:48:53.338Z,17.25
2022-09-12T23:51:22.203Z,17.23
2022-09-12T23:53:50.619Z,17.21
2022-09-12T23:56:18.949Z,17.22
2022-09-12T23:58:47.359Z,17.22
